x

Columbia River Bar - 20nm West Of Columbia River Mouth (46029) Wave Buoy

1:50am - Thu 24th Aug 2017 All times are PDT. -7 hours from GMT.

  • Sig Wave height 4.6ft
  • Swell Direction
  • Peak Period 7s
  • Average Period 6s
  • Wind
    11mph, 13mph gusts
  • Sea Temp 59°f
  • 空気 Temp 60°f
  • Sea Pressure 1018.2mb
  • Columbia River Bar - 20nm West Of Columbia River Mouth
  • Columbia River Bar - 20nm West Of Columbia River Mouth

More Historic Weather Station data

Upgrade to MSW Pro to gain access to the past 30 days of data for over 8000 Wavebouys and Weather Stations around the globe.

Join

Comparision Forecast

View Surf forecast
   
Thu 08/24 1:50am 4.5ft 7s 6s 11 13 mph 1018.2mb 59f 60f
12:50am 4.5ft 7s 6s 11 13 mph 1018.1mb 58f 60f
Wed 08/23 11:50pm 4.5ft 6s 5s 9 11 mph 1018mb 58f 59f
10:50pm 3.5ft 8s 5s 11 13 mph 1017.7mb 58f 60f
9:50pm 3.5ft 9s 5s 13 16 mph 1017.8mb 58f 60f
8:50pm 3.5ft 9s 5s 13 18 mph 1017.3mb 57f 59f
7:50pm 3.5ft 7s 5s 18 22 mph 1017.1mb 58f 59f
6:50pm 3.5ft 8s 7s 11 22 mph 1016.9mb 59f 61f
5:50pm 3.5ft 8s 7s 7 7 mph 1017.2mb 59f 61f
4:50pm 3.5ft 8s 7s 4 4 mph 1017.4mb 59f 61f
3:50pm 3.5ft 8s 7s 7 9 mph 1017.5mb 60f 62f
2:50pm 4ft 8s 7s 4 7 mph 1017.8mb 62f 62f
1:50pm 3.5ft 8s 7s 2 4 mph 1017.9mb 61f 62f
12:50pm 3.5ft 8s 7s 4 4 mph 1018mb 61f 62f
10:50am 3.5ft 8s 7s 2 4 mph 1018.5mb 59f 60f
9:50am 3.5ft 8s 6s 2 4 mph 1018.6mb 58f 59f
8:50am 3.5ft 9s 7s 7 9 mph 1018.6mb 58f 59f
7:50am 3ft 7s 6s 4 7 mph 1018.5mb 59f 59f
6:50am 3.5ft 9s 7s 2 2 mph 1018.2mb 59f 59f
5:50am 3.5ft 8s 7s  -  2 mph 1017.9mb 59f 59f
4:50am 3.5ft 8s 7s 2 2 mph 1018.1mb 58f 59f
3:50am 3.5ft 8s 7s 2 2 mph 1018.4mb 58f 59f
2:50am 3.5ft 8s 6s 4 4 mph 1018.5mb 58f 59f
1:50am 3ft 9s 6s  -  2 mph 1019mb 59f 59f
12:50am 3.5ft 12s 6s 2 2 mph 1019.1mb 59f 59f
Tue 08/22 11:50pm 3.5ft 8s 6s 2 4 mph 1019mb 58f 59f
10:50pm 3.5ft 8s 6s 4 4 mph 1019.1mb 58f 58f
9:50pm 3.5ft 8s 6s 4 7 mph 1019.1mb 59f 58f
8:50pm 4ft 13s 6s 7 9 mph 1019.1mb 58f 59f
7:50pm 4ft 8s 6s 7 9 mph 1018.7mb 58f 60f
6:50pm 4ft 8s 6s 7 7 mph 1018.6mb 58f 60f
5:50pm 4ft 8s 6s 2 4 mph 1018.8mb 59f 60f
4:50pm 4ft 8s 6s 4 4 mph 1019.1mb 59f 60f
3:50pm 4.5ft 8s 6s 2 4 mph 1019.2mb 60f 60f
2:50pm 4.5ft 8s 6s 2 4 mph 1019.5mb 59f 60f
1:50pm 3.5ft 9s 6s 2 2 mph 1019.4mb 59f 60f
11:50am 4.5ft 8s 6s 2 4 mph 1019.2mb 58f 58f
10:50am 4.5ft 9s 6s 2 2 mph 1018.9mb 58f 57f
9:50am 4.5ft 8s 6s  -  0 mph 1018.8mb 57f 57f
8:50am 4.5ft 9s 5s 2 2 mph 1018.6mb 57f 57f
7:50am 5ft 8s 6s 4 7 mph 1017.9mb 55f 58f
6:50am 5ft 9s 5s 7 9 mph 1017.4mb 56f 58f
5:50am 5ft 8s 5s 11 13 mph 1016.7mb 56f 58f
4:50am 5ft 9s 5s 16 20 mph 1016.1mb 56f 58f
3:50am 5ft 8s 6s 16 20 mph 1016mb 56f 58f
2:50am 5ft 8s 5s 16 20 mph 1015.8mb 56f 58f
1:50am 5ft 8s 6s 16 18 mph 1015.7mb 56f 58f
12:50am 5ft 9s 5s 18 22 mph 1015.6mb 56f 58f
Mon 08/21 11:50pm 4.5ft 8s 6s 13 16 mph 1015.9mb 56f 58f
10:50pm 4.5ft 9s 5s 11 13 mph 1016.2mb 56f 58f
9:50pm 5ft 8s 5s 13 16 mph 1016mb 56f 58f
8:50pm 5ft 10s 5s 16 18 mph 1015.8mb 56f 58f
7:50pm 5ft 10s 5s 18 20 mph 1015.9mb 57f 58f
6:50pm 5.5ft 9s 5s 22 29 mph 1015.9mb 57f 57f
5:50pm 5.5ft 9s 5s 25 29 mph 1016.1mb 56f 58f
4:50pm 5.5ft 8s 5s 25 27 mph 1016.7mb 56f 57f
3:50pm 5.5ft 8s 5s 20 27 mph 1017.3mb 56f 57f
2:50pm 5ft 8s 5s 22 27 mph 1017.7mb 56f 57f
1:50pm 5ft 10s 6s 22 25 mph 1018.2mb 56f 56f
12:50pm 5ft 8s 5s 18 22 mph 1018.7mb 57f 56f
11:50am 5ft 10s 5s 20 25 mph 1018.9mb 59f 56f
10:50am 4.5ft 9s 5s 20 22 mph 1019.5mb 59f 56f
9:50am 4.5ft 9s 5s 20 22 mph 1019.6mb 60f 56f
8:50am 4.5ft 9s 5s 16 20 mph 1019.8mb 60f 56f
7:50am 4.5ft 10s 5s 18 20 mph 1019.6mb 60f 56f
6:50am 4.5ft 9s 5s 20 25 mph 1019.6mb 60f 57f
5:50am 4.5ft 10s 5s 20 22 mph 1019.6mb 60f 58f
4:50am 4.5ft 10s 5s 18 20 mph 1019.6mb 59f 58f
3:50am 4.5ft 10s 6s 16 20 mph 1019.9mb 59f 59f
2:50am 4.5ft 10s 6s 18 25 mph 1020mb 59f 60f
1:50am 4.5ft 10s 6s 13 16 mph 1020.1mb 59f 60f
12:50am 5ft 8s 7s 13 16 mph 1020.2mb 59f 60f
Sun 08/20 11:50pm 4.5ft 10s 6s 13 16 mph 1020.2mb 59f 60f
10:50pm 4.5ft 9s 6s 11 13 mph 1020.4mb 59f 60f
9:50pm 4.5ft 10s 6s 13 16 mph 1020.7mb 60f 60f
8:50pm 4.5ft 9s 6s 16 18 mph 1020.4mb 60f 60f
7:50pm 4ft 9s 6s 13 16 mph 1020.4mb 60f 61f
6:50pm 4.5ft 9s 6s 16 18 mph 1020.3mb 60f 61f
5:50pm 4.5ft 9s 6s 11 13 mph 1020.6mb 60f 61f
4:50pm 4.5ft 9s 7s 13 18 mph 1020.9mb 59f 61f
3:50pm 4.5ft 9s 6s 13 16 mph 1021.3mb 59f 60f
2:50pm 5ft 10s 6s 13 13 mph 1021.6mb 59f 60f
1:50pm 4.5ft 9s 6s 11 13 mph 1022mb 60f 60f
12:50pm 5ft 10s 6s 13 16 mph 1021.9mb 60f 60f
11:50am 5ft 11s 6s 11 13 mph 1022mb 59f 59f
10:50am 5.5ft 8s 6s 11 13 mph 1022.2mb 59f 59f